createdAt,value
2018-12-16T00:01:15.285Z,100786.16
2018-12-16T00:03:42.930Z,100796.72
2018-12-16T00:06:10.356Z,100788.06
2018-12-16T00:08:37.933Z,100787.91
2018-12-16T00:11:05.408Z,100783.09
2018-12-16T00:13:32.863Z,100779.11
2018-12-16T00:16:00.308Z,100779.11
2018-12-16T00:18:27.766Z,100786.82
2018-12-16T00:20:55.216Z,100782.77
2018-12-16T00:23:22.685Z,100780.45
2018-12-16T00:25:50.098Z,100788.32
2018-12-16T00:28:17.533Z,100791.22
2018-12-16T00:30:45.046Z,100794.22
2018-12-16T00:33:12.479Z,100802.03
2018-12-16T00:35:40.075Z,100799.58
2018-12-16T00:38:07.509Z,100798.02
2018-12-16T00:40:34.993Z,100798.16
2018-12-16T00:43:02.410Z,100800.03
2018-12-16T00:45:29.849Z,100798.56
2018-12-16T00:47:57.333Z,100795.08
2018-12-16T00:50:24.898Z,100793.78
2018-12-16T00:52:52.309Z,100788.60
2018-12-16T00:55:19.739Z,100787.20
2018-12-16T00:57:47.190Z,100778.14
2018-12-16T01:00:14.714Z,100778.97
2018-12-16T01:02:43.125Z,100775.91
2018-12-16T01:05:10.844Z,100777.60
2018-12-16T01:07:38.315Z,100778.91
2018-12-16T01:10:07.534Z,100784.45
2018-12-16T01:12:35.007Z,100786.58
2018-12-16T01:15:02.544Z,100784.45
2018-12-16T01:17:29.980Z,100775.67
2018-12-16T01:19:57.581Z,100777.17
2018-12-16T01:22:25.025Z,100772.09
2018-12-16T01:24:52.503Z,100769.03
2018-12-16T01:27:20.051Z,100768.47
2018-12-16T01:29:47.473Z,100760.98
2018-12-16T01:32:14.897Z,100754.97
2018-12-16T01:34:42.327Z,100758.23
2018-12-16T01:37:09.853Z,100748.23
2018-12-16T01:39:37.329Z,100742.97
2018-12-16T01:42:04.799Z,100734.73
2018-12-16T01:44:32.221Z,100724.06
2018-12-16T01:46:59.697Z,100715.93
2018-12-16T01:49:27.165Z,100709.16
2018-12-16T01:51:54.579Z,100699.89
2018-12-16T01:54:22.083Z,100689.16
2018-12-16T01:56:49.525Z,100696.27
2018-12-16T01:59:16.977Z,100696.53
2018-12-16T02:01:46.423Z,100690.19
2018-12-16T02:04:13.851Z,100690.67
2018-12-16T02:06:41.317Z,100695.21
2018-12-16T02:09:10.739Z,100690.51
2018-12-16T02:11:38.156Z,100695.41
2018-12-16T02:14:05.625Z,100693.11
2018-12-16T02:16:33.079Z,100682.11
2018-12-16T02:19:00.509Z,100678.03
2018-12-16T02:21:27.914Z,100669.43
2018-12-16T02:23:55.415Z,100664.42
2018-12-16T02:26:22.911Z,100652.58
2018-12-16T02:28:50.362Z,100649.81
2018-12-16T02:31:17.783Z,100642.03
2018-12-16T02:33:45.214Z,100639.97
2018-12-16T02:36:12.744Z,100634.06
2018-12-16T02:38:40.193Z,100632.12
2018-12-16T02:41:07.718Z,100626.29
2018-12-16T02:43:35.230Z,100624.70
2018-12-16T02:46:02.760Z,100620.70
2018-12-16T02:48:30.244Z,100610.16
2018-12-16T02:50:57.648Z,100601.64
2018-12-16T02:53:25.142Z,100595.52
2018-12-16T02:55:52.606Z,100588.86
2018-12-16T02:58:20.055Z,100586.08
2018-12-16T03:00:47.481Z,100581.17
2018-12-16T03:03:14.952Z,100567.62
2018-12-16T03:05:42.439Z,100571.52
2018-12-16T03:08:09.889Z,100559.41
2018-12-16T03:10:37.352Z,100564.31
2018-12-16T03:13:04.798Z,100554.66
2018-12-16T03:15:32.394Z,100559.30
2018-12-16T03:17:59.820Z,100537.13
2018-12-16T03:20:27.262Z,100531.95
2018-12-16T03:22:54.738Z,100532.41
2018-12-16T03:25:22.149Z,100521.13
2018-12-16T03:27:49.604Z,100532.70
2018-12-16T03:30:17.106Z,100537.52
2018-12-16T03:32:44.548Z,100536.04
2018-12-16T03:35:11.979Z,100524.06
2018-12-16T03:37:39.505Z,100516.91
2018-12-16T03:40:07.445Z,100520.73
2018-12-16T03:42:34.887Z,100502.62
2018-12-16T03:45:02.371Z,100499.75
2018-12-16T03:47:29.802Z,100491.72
2018-12-16T03:49:57.569Z,100495.41
2018-12-16T03:52:25.025Z,100489.17
2018-12-16T03:54:52.487Z,100494.64
2018-12-16T03:57:19.928Z,100482.88
2018-12-16T03:59:47.338Z,100477.11
2018-12-16T04:02:14.786Z,100469.80
2018-12-16T04:04:42.195Z,100471.36
2018-12-16T04:07:09.638Z,100475.14
2018-12-16T04:09:37.145Z,100480.50
2018-12-16T04:12:04.686Z,100468.93
2018-12-16T04:14:32.152Z,100463.38
2018-12-16T04:16:59.604Z,100463.85
2018-12-16T04:19:27.082Z,100466.64
2018-12-16T04:21:54.519Z,100469.95
2018-12-16T04:24:22.268Z,100471.52
2018-12-16T04:26:49.727Z,100459.30
2018-12-16T04:29:17.162Z,100468.73
2018-12-16T04:31:44.671Z,100460.64
2018-12-16T04:34:12.210Z,100456.74
2018-12-16T04:36:39.672Z,100460.44
2018-12-16T04:39:07.131Z,100456.66
2018-12-16T04:41:34.693Z,100461.46
2018-12-16T04:44:02.117Z,100460.01
2018-12-16T04:46:29.612Z,100465.47
2018-12-16T04:48:57.052Z,100461.85
2018-12-16T04:51:24.634Z,100459.65
2018-12-16T04:53:52.043Z,100457.05
2018-12-16T04:56:19.713Z,100462.13
2018-12-16T04:58:47.180Z,100462.52
2018-12-16T05:01:14.594Z,100457.69
2018-12-16T05:03:42.101Z,100459.34
2018-12-16T05:06:09.563Z,100462.88
2018-12-16T05:08:37.010Z,100462.77
2018-12-16T05:11:04.497Z,100461.46
2018-12-16T05:13:32.020Z,100465.74
2018-12-16T05:15:59.477Z,100457.21
2018-12-16T05:18:27.052Z,100454.10
2018-12-16T05:20:54.523Z,100456.42
2018-12-16T05:23:21.963Z,100452.80
2018-12-16T05:25:49.411Z,100447.45
2018-12-16T05:28:16.840Z,100450.44
2018-12-16T05:30:44.325Z,100448.98
2018-12-16T05:33:11.760Z,100446.22
2018-12-16T05:35:39.221Z,100441.23
2018-12-16T05:38:06.693Z,100434.38
2018-12-16T05:40:34.110Z,100439.77
2018-12-16T05:43:01.537Z,100435.79
2018-12-16T05:45:28.960Z,100438.88
2018-12-16T05:47:56.738Z,100432.70
2018-12-16T05:50:24.194Z,100423.34
2018-12-16T05:52:51.660Z,100428.89
2018-12-16T05:55:19.159Z,100434.66
2018-12-16T05:57:46.674Z,100426.77
2018-12-16T06:00:14.107Z,100436.20
2018-12-16T06:02:41.520Z,100437.80
2018-12-16T06:07:42.757Z,100435.95
2018-12-16T06:10:10.311Z,100429.66
2018-12-16T06:12:37.749Z,100434.38
2018-12-16T06:15:05.331Z,100440.94
2018-12-16T06:17:32.752Z,100445.22
2018-12-16T06:20:00.233Z,100448.45
2018-12-16T06:22:27.686Z,100441.14
2018-12-16T06:24:55.144Z,100431.78
2018-12-16T06:27:22.566Z,100438.45
2018-12-16T06:29:50.359Z,100440.60
2018-12-16T06:32:17.827Z,100434.50
2018-12-16T06:34:45.287Z,100427.73
2018-12-16T06:37:12.739Z,100431.44
2018-12-16T06:39:40.164Z,100431.72
2018-12-16T06:42:07.589Z,100425.89
2018-12-16T06:44:35.127Z,100422.55
2018-12-16T06:47:02.871Z,100428.48
2018-12-16T06:49:30.635Z,100428.48
2018-12-16T06:51:58.105Z,100423.84
2018-12-16T06:54:25.537Z,100422.94
2018-12-16T06:56:52.952Z,100424.95
2018-12-16T06:59:20.390Z,100425.53
2018-12-16T07:01:47.825Z,100424.03
2018-12-16T07:04:15.279Z,100431.09
2018-12-16T07:06:42.706Z,100425.98
2018-12-16T07:09:10.116Z,100431.64
2018-12-16T07:11:37.568Z,100427.94
2018-12-16T07:14:05.005Z,100430.73
2018-12-16T07:16:32.463Z,100431.44
2018-12-16T07:18:59.923Z,100437.07
2018-12-16T07:21:27.344Z,100435.41
2018-12-16T07:23:54.941Z,100435.61
2018-12-16T07:26:22.368Z,100439.38
2018-12-16T07:28:49.828Z,100436.05
2018-12-16T07:31:17.403Z,100437.16
2018-12-16T07:33:44.939Z,100435.58
2018-12-16T07:36:12.427Z,100434.64
2018-12-16T07:38:39.976Z,100431.20
2018-12-16T07:41:07.448Z,100434.36
2018-12-16T07:43:34.929Z,100432.39
2018-12-16T07:46:02.468Z,100428.03
2018-12-16T07:48:30.134Z,100431.73
2018-12-16T07:50:57.581Z,100441.09
2018-12-16T07:53:25.041Z,100440.07
2018-12-16T07:55:52.497Z,100444.59
2018-12-16T07:58:20.013Z,100444.13
2018-12-16T08:00:47.503Z,100456.27
2018-12-16T08:03:14.977Z,100460.98
2018-12-16T08:05:42.422Z,100460.52
2018-12-16T08:08:09.837Z,100453.84
2018-12-16T08:10:37.329Z,100453.65
2018-12-16T08:13:04.759Z,100458.17
2018-12-16T08:15:33.280Z,100459.00
2018-12-16T08:18:00.746Z,100450.66
2018-12-16T08:20:28.192Z,100447.13
2018-12-16T08:22:55.623Z,100451.73
2018-12-16T08:25:23.205Z,100445.52
2018-12-16T08:27:50.654Z,100453.23
2018-12-16T08:30:18.083Z,100453.23
2018-12-16T08:32:45.510Z,100461.17
2018-12-16T08:35:12.941Z,100460.59
2018-12-16T08:37:40.394Z,100446.23
2018-12-16T08:40:08.062Z,100454.37
2018-12-16T08:42:35.489Z,100450.09
2018-12-16T08:45:04.478Z,100456.39
2018-12-16T08:47:33.269Z,100457.84
2018-12-16T08:50:00.911Z,100455.88
2018-12-16T08:52:28.347Z,100451.16
2018-12-16T08:54:55.758Z,100454.50
2018-12-16T08:57:23.260Z,100452.61
2018-12-16T08:59:50.761Z,100461.41
2018-12-16T09:02:18.240Z,100453.87
2018-12-16T09:04:45.650Z,100463.58
2018-12-16T09:07:13.456Z,100462.55
2018-12-16T09:09:41.032Z,100461.53
2018-12-16T09:12:08.461Z,100456.96
2018-12-16T09:14:35.902Z,100457.70
2018-12-16T09:17:03.373Z,100462.07
2018-12-16T09:19:30.852Z,100458.27
2018-12-16T09:21:58.286Z,100468.65
2018-12-16T09:24:25.706Z,100465.78
2018-12-16T09:26:53.150Z,100473.02
2018-12-16T09:29:20.577Z,100477.06
2018-12-16T09:31:48.023Z,100474.27
2018-12-16T09:34:15.441Z,100473.52
2018-12-16T09:36:43.039Z,100473.08
2018-12-16T09:39:10.461Z,100473.14
2018-12-16T09:41:37.963Z,100473.41
2018-12-16T09:44:05.490Z,100469.55
2018-12-16T09:46:32.976Z,100465.16
2018-12-16T09:49:00.471Z,100466.12
2018-12-16T09:51:28.000Z,100462.84
2018-12-16T09:53:55.414Z,100458.86
2018-12-16T09:56:22.841Z,100469.88
2018-12-16T09:58:50.346Z,100464.00
2018-12-16T10:01:17.818Z,100462.11
2018-12-16T10:03:45.253Z,100464.50
2018-12-16T10:06:12.703Z,100463.11
2018-12-16T10:08:40.131Z,100456.84
2018-12-16T10:11:07.701Z,100464.34
2018-12-16T10:13:35.298Z,100455.60
2018-12-16T10:16:02.740Z,100455.03
2018-12-16T10:18:30.324Z,100449.98
2018-12-16T10:20:57.784Z,100442.23
2018-12-16T10:23:25.203Z,100435.88
2018-12-16T10:25:52.677Z,100438.44
2018-12-16T10:28:20.145Z,100442.00
2018-12-16T10:30:47.699Z,100445.55
2018-12-16T10:33:15.153Z,100447.30
2018-12-16T10:35:42.594Z,100443.05
2018-12-16T10:38:10.038Z,100443.38
2018-12-16T10:40:37.548Z,100443.69
2018-12-16T10:43:05.002Z,100456.20
2018-12-16T10:45:32.410Z,100451.09
2018-12-16T10:47:59.885Z,100451.95
2018-12-16T10:50:27.341Z,100451.00
2018-12-16T10:52:54.750Z,100448.61
2018-12-16T10:55:22.198Z,100447.17
2018-12-16T10:57:49.626Z,100444.22
2018-12-16T11:00:22.704Z,100451.54
2018-12-16T11:02:50.146Z,100449.64
2018-12-16T11:05:17.718Z,100445.39
2018-12-16T11:07:45.185Z,100448.82
2018-12-16T11:10:12.756Z,100439.72
2018-12-16T11:12:40.432Z,100441.97
2018-12-16T11:15:07.876Z,100434.42
2018-12-16T11:17:35.318Z,100444.83
2018-12-16T11:20:03.299Z,100430.66
2018-12-16T11:22:30.749Z,100434.83
2018-12-16T11:25:05.403Z,100427.47
2018-12-16T11:27:27.653Z,100423.26
2018-12-16T11:29:55.187Z,100420.53
2018-12-16T11:32:22.601Z,100426.34
2018-12-16T11:34:50.081Z,100420.32
2018-12-16T11:37:17.567Z,100421.88
2018-12-16T11:39:45.108Z,100411.83
2018-12-16T11:42:12.557Z,100421.66
2018-12-16T11:44:40.028Z,100415.52
2018-12-16T11:47:07.486Z,100421.19
2018-12-16T11:49:34.951Z,100417.29
2018-12-16T11:52:02.417Z,100412.56
2018-12-16T11:54:29.847Z,100417.64
2018-12-16T11:56:57.284Z,100415.17
2018-12-16T11:59:24.697Z,100417.68
2018-12-16T12:01:52.140Z,100406.92
2018-12-16T12:04:19.669Z,100407.15
2018-12-16T12:06:47.226Z,100402.16
2018-12-16T12:09:14.681Z,100404.89
2018-12-16T12:11:42.131Z,100410.22
2018-12-16T12:14:09.557Z,100409.01
2018-12-16T12:16:36.965Z,100412.56
2018-12-16T12:19:04.381Z,100412.17
2018-12-16T12:21:31.877Z,100405.32
2018-12-16T12:23:59.332Z,100410.05
2018-12-16T12:26:26.791Z,100407.09
2018-12-16T12:28:54.243Z,100400.02
2018-12-16T12:31:21.741Z,100400.98
2018-12-16T12:33:49.169Z,100405.02
2018-12-16T12:36:16.595Z,100396.65
2018-12-16T12:38:44.061Z,100393.00
2018-12-16T12:41:11.501Z,100389.32
2018-12-16T12:43:38.957Z,100392.09
2018-12-16T12:46:06.434Z,100395.39
2018-12-16T12:48:33.919Z,100393.05
2018-12-16T12:51:01.362Z,100397.30
2018-12-16T12:53:28.799Z,100405.45
2018-12-16T12:55:56.281Z,100400.63
2018-12-16T12:58:23.693Z,100398.95
2018-12-16T13:00:51.294Z,100390.56
2018-12-16T13:03:18.724Z,100387.05
2018-12-16T13:05:46.152Z,100378.67
2018-12-16T13:08:13.660Z,100382.57
2018-12-16T13:10:41.079Z,100384.38
2018-12-16T13:13:08.505Z,100389.94
2018-12-16T13:15:35.940Z,100383.91
2018-12-16T13:18:03.385Z,100385.93
2018-12-16T13:20:30.945Z,100395.48
2018-12-16T13:22:58.373Z,100394.19
2018-12-16T13:25:37.733Z,100393.05
2018-12-16T13:28:05.163Z,100402.50
2018-12-16T13:30:32.588Z,100406.06
2018-12-16T13:33:00.018Z,100409.97
2018-12-16T13:35:27.445Z,100418.12
2018-12-16T13:37:54.881Z,100417.30
2018-12-16T13:40:22.293Z,100414.45
2018-12-16T13:42:49.729Z,100420.35
2018-12-16T13:45:17.177Z,100413.11
2018-12-16T13:47:44.637Z,100421.78
2018-12-16T13:50:12.116Z,100418.92
2018-12-16T13:52:39.583Z,100418.70
2018-12-16T13:55:07.137Z,100421.69
2018-12-16T13:57:35.601Z,100425.59
2018-12-16T14:00:03.788Z,100422.00
2018-12-16T14:02:31.219Z,100423.44
2018-12-16T14:04:58.685Z,100419.75
2018-12-16T14:07:26.141Z,100425.91
2018-12-16T14:09:53.607Z,100428.13
2018-12-16T14:12:21.063Z,100435.94
2018-12-16T14:14:48.481Z,100437.63
2018-12-16T14:17:15.969Z,100438.06
2018-12-16T14:19:43.421Z,100443.18
2018-12-16T14:22:10.833Z,100444.23
2018-12-16T14:24:38.350Z,100445.05
2018-12-16T14:27:05.910Z,100453.42
2018-12-16T14:29:33.338Z,100441.36
2018-12-16T14:32:00.833Z,100439.84
2018-12-16T14:34:28.292Z,100432.03
2018-12-16T14:36:55.752Z,100443.27
2018-12-16T14:39:23.184Z,100449.30
2018-12-16T14:41:50.598Z,100438.89
2018-12-16T14:44:18.101Z,100443.74
2018-12-16T14:46:45.555Z,100448.83
2018-12-16T14:49:12.976Z,100450.95
2018-12-16T14:51:40.467Z,100444.57
2018-12-16T14:54:07.922Z,100449.17
2018-12-16T14:56:35.372Z,100452.86
2018-12-16T14:59:02.837Z,100451.56
2018-12-16T15:01:30.277Z,100459.14
2018-12-16T15:03:57.698Z,100463.27
2018-12-16T15:06:25.111Z,100460.06
2018-12-16T15:08:52.537Z,100458.28
2018-12-16T15:11:20.036Z,100470.70
2018-12-16T15:13:47.461Z,100473.42
2018-12-16T15:16:14.941Z,100482.06
2018-12-16T15:18:42.420Z,100478.72
2018-12-16T15:21:09.859Z,100477.80
2018-12-16T15:23:37.279Z,100489.78
2018-12-16T15:26:04.780Z,100487.27
2018-12-16T15:28:32.182Z,100491.17
2018-12-16T15:30:59.625Z,100496.02
2018-12-16T15:33:27.068Z,100495.55
2018-12-16T15:35:54.509Z,100487.83
2018-12-16T15:38:21.951Z,100493.77
2018-12-16T15:40:49.411Z,100493.20
2018-12-16T15:43:16.884Z,100485.18
2018-12-16T15:45:44.306Z,100478.89
2018-12-16T15:48:11.779Z,100477.37
2018-12-16T15:50:39.202Z,100480.71
2018-12-16T15:53:06.700Z,100475.03
2018-12-16T15:55:34.123Z,100484.97
2018-12-16T15:58:01.541Z,100486.62
2018-12-16T16:00:29.070Z,100495.64
2018-12-16T16:02:56.513Z,100492.09
2018-12-16T16:05:24.204Z,100483.80
2018-12-16T16:07:51.730Z,100487.70
2018-12-16T16:10:19.219Z,100488.56
2018-12-16T16:12:46.663Z,100494.47
2018-12-16T16:15:14.139Z,100499.46
2018-12-16T16:17:41.618Z,100507.05
2018-12-16T16:20:09.105Z,100502.10
2018-12-16T16:22:36.663Z,100500.32
2018-12-16T16:25:04.399Z,100499.50
2018-12-16T16:27:31.836Z,100506.01
2018-12-16T16:29:59.262Z,100512.05
2018-12-16T16:32:26.698Z,100514.64
2018-12-16T16:34:54.194Z,100514.17
2018-12-16T16:37:21.643Z,100508.96
2018-12-16T16:39:49.094Z,100504.58
2018-12-16T16:42:16.535Z,100514.64
2018-12-16T16:46:13.371Z,100525.31
2018-12-16T16:48:40.863Z,100510.99
2018-12-16T16:51:08.354Z,100513.00
2018-12-16T16:53:36.083Z,100506.87
2018-12-16T16:56:03.557Z,100508.17
2018-12-16T16:58:30.984Z,100515.03
2018-12-16T17:00:58.509Z,100523.20
2018-12-16T17:03:25.941Z,100520.11
2018-12-16T17:05:53.798Z,100520.02
2018-12-16T17:08:21.274Z,100518.59
2018-12-16T17:10:48.687Z,100520.15
2018-12-16T17:13:16.127Z,100517.80
2018-12-16T17:15:43.709Z,100528.92
2018-12-16T17:18:11.171Z,100530.22
2018-12-16T17:20:38.626Z,100529.75
2018-12-16T17:23:06.089Z,100536.26
2018-12-16T17:25:33.507Z,100530.70
2018-12-16T17:28:00.933Z,100531.53
2018-12-16T17:30:28.358Z,100529.40
2018-12-16T17:32:55.805Z,100530.12
2018-12-16T17:35:23.241Z,100537.47
2018-12-16T17:37:50.713Z,100540.42
2018-12-16T17:40:18.489Z,100535.22
2018-12-16T17:42:45.951Z,100540.67
2018-12-16T17:45:13.496Z,100551.83
2018-12-16T17:47:40.945Z,100544.11
2018-12-16T17:50:08.481Z,100543.89
2018-12-16T17:52:35.920Z,100539.50
2018-12-16T17:55:03.752Z,100538.68
2018-12-16T17:57:31.188Z,100540.72
2018-12-16T17:59:58.641Z,100542.94
2018-12-16T18:02:26.057Z,100544.02
2018-12-16T18:04:53.587Z,100546.63
2018-12-16T18:07:21.006Z,100544.75
2018-12-16T18:09:48.437Z,100545.83
2018-12-16T18:12:15.971Z,100558.25
2018-12-16T18:14:43.688Z,100556.13
2018-12-16T18:17:11.233Z,100561.12
2018-12-16T18:19:38.726Z,100559.59
2018-12-16T18:22:06.154Z,100561.98
2018-12-16T18:24:33.633Z,100560.45
2018-12-16T18:27:01.095Z,100560.32
2018-12-16T18:29:28.523Z,100555.48
2018-12-16T18:31:56.011Z,100550.97
2018-12-16T18:34:23.433Z,100555.71
2018-12-16T18:36:51.009Z,100561.66
2018-12-16T18:39:18.434Z,100560.00
2018-12-16T18:41:46.109Z,100563.91
2018-12-16T18:44:13.586Z,100574.34
2018-12-16T18:46:41.028Z,100570.42
2018-12-16T18:49:08.496Z,100578.12
2018-12-16T18:51:36.260Z,100582.38
2018-12-16T18:54:03.748Z,100579.33
2018-12-16T18:56:31.190Z,100583.69
2018-12-16T18:58:58.645Z,100589.28
2018-12-16T19:01:26.067Z,100591.66
2018-12-16T19:03:53.500Z,100586.80
2018-12-16T19:06:20.988Z,100581.84
2018-12-16T19:08:48.472Z,100583.48
2018-12-16T19:11:15.910Z,100584.66
2018-12-16T19:13:43.395Z,100586.23
2018-12-16T19:16:10.833Z,100584.19
2018-12-16T19:18:38.606Z,100581.23
2018-12-16T19:21:06.095Z,100590.14
2018-12-16T19:23:33.626Z,100590.73
2018-12-16T19:26:01.095Z,100593.22
2018-12-16T19:28:28.543Z,100590.13
2018-12-16T19:30:56.120Z,100594.88
2018-12-16T19:33:23.655Z,100593.09
2018-12-16T19:35:51.062Z,100593.47
2018-12-16T19:38:18.584Z,100600.81
2018-12-16T19:40:46.041Z,100601.55
2018-12-16T19:43:13.457Z,100606.63
2018-12-16T19:45:40.946Z,100605.45
2018-12-16T19:48:08.407Z,100602.38
2018-12-16T19:50:35.857Z,100603.20
2018-12-16T19:53:03.285Z,100619.32
2018-12-16T19:55:30.743Z,100606.51
2018-12-16T19:57:58.222Z,100614.08
2018-12-16T20:00:25.685Z,100616.81
2018-12-16T20:02:53.127Z,100622.34
2018-12-16T20:05:20.711Z,100622.82
2018-12-16T20:07:48.608Z,100630.42
2018-12-16T20:10:16.119Z,100634.81
2018-12-16T20:12:43.563Z,100633.63
2018-12-16T20:15:11.040Z,100643.71
2018-12-16T20:17:38.981Z,100636.59
2018-12-16T20:20:06.971Z,100646.19
2018-12-16T20:22:34.412Z,100645.23
2018-12-16T20:25:01.833Z,100650.71
2018-12-16T20:27:29.252Z,100656.66
2018-12-16T20:29:56.688Z,100666.01
2018-12-16T20:32:24.119Z,100666.23
2018-12-16T20:34:51.537Z,100666.48
2018-12-16T20:37:19.025Z,100667.56
2018-12-16T20:39:46.445Z,100662.95
2018-12-16T20:42:13.939Z,100666.64
2018-12-16T20:44:41.451Z,100670.69
2018-12-16T20:47:08.907Z,100673.99
2018-12-16T20:49:36.350Z,100678.28
2018-12-16T20:52:03.821Z,100675.67
2018-12-16T20:54:31.277Z,100681.37
2018-12-16T20:56:58.739Z,100684.80
2018-12-16T20:59:26.195Z,100675.93
2018-12-16T21:01:53.623Z,100685.51
2018-12-16T21:04:21.033Z,100688.84
2018-12-16T21:06:48.546Z,100686.59
2018-12-16T21:09:16.027Z,100678.66
2018-12-16T21:12:01.338Z,100681.15
2018-12-16T21:14:34.488Z,100685.44
2018-12-16T21:17:07.719Z,100681.88
2018-12-16T21:19:35.237Z,100683.05
2018-12-16T21:22:02.692Z,100679.52
2018-12-16T21:24:30.159Z,100679.14
2018-12-16T21:26:57.631Z,100673.58
2018-12-16T21:29:25.164Z,100675.93
2018-12-16T21:31:52.587Z,100672.14
2018-12-16T21:34:20.075Z,100676.16
2018-12-16T21:36:47.497Z,100685.41
2018-12-16T21:39:14.907Z,100685.51
2018-12-16T21:41:42.347Z,100678.64
2018-12-16T21:44:09.815Z,100685.28
2018-12-16T21:46:37.251Z,100694.03
2018-12-16T21:49:04.701Z,100694.03
2018-12-16T21:51:32.975Z,100689.42
2018-12-16T21:54:00.451Z,100689.89
2018-12-16T21:56:27.917Z,100698.89
2018-12-16T21:58:55.355Z,100704.11
2018-12-16T22:01:22.808Z,100703.16
2018-12-16T22:03:50.275Z,100705.06
2018-12-16T22:06:17.697Z,100704.69
2018-12-16T22:08:45.199Z,100710.77
2018-12-16T22:11:13.261Z,100694.37
2018-12-16T22:13:40.823Z,100705.55
2018-12-16T22:16:08.368Z,100714.06
2018-12-16T22:18:35.800Z,100710.03
2018-12-16T22:21:03.281Z,100718.59
2018-12-16T22:23:30.760Z,100718.81
2018-12-16T22:25:58.189Z,100715.72
2018-12-16T22:28:25.609Z,100714.33
2018-12-16T22:30:53.124Z,100717.28
2018-12-16T22:33:20.580Z,100722.02
2018-12-16T22:35:48.051Z,100718.97
2018-12-16T22:38:15.474Z,100721.45
2018-12-16T22:40:42.888Z,100730.94
2018-12-16T22:43:10.410Z,100722.63
2018-12-16T22:45:37.834Z,100720.28
2018-12-16T22:48:05.322Z,100723.62
2018-12-16T22:50:32.807Z,100717.45
2018-12-16T22:53:00.231Z,100717.45
2018-12-16T22:55:27.665Z,100705.13
2018-12-16T22:57:55.105Z,100710.83
2018-12-16T23:00:22.715Z,100707.75
2018-12-16T23:02:50.221Z,100708.92
2018-12-16T23:05:17.688Z,100711.44
2018-12-16T23:07:45.159Z,100706.22
2018-12-16T23:10:12.640Z,100710.95
2018-12-16T23:12:40.162Z,100708.70
2018-12-16T23:15:07.771Z,100702.91
2018-12-16T23:17:35.268Z,100708.00
2018-12-16T23:20:08.373Z,100698.39
2018-12-16T23:22:35.867Z,100691.03
2018-12-16T23:25:03.390Z,100700.52
2018-12-16T23:27:30.865Z,100703.98
2018-12-16T23:29:58.319Z,100706.81
2018-12-16T23:32:25.781Z,100709.68
2018-12-16T23:34:53.251Z,100708.37
2018-12-16T23:37:20.709Z,100708.28
2018-12-16T23:39:48.121Z,100696.98
2018-12-16T23:42:15.625Z,100706.50
2018-12-16T23:44:43.091Z,100706.37
2018-12-16T23:47:10.544Z,100707.67
2018-12-16T23:49:38.001Z,100709.70
2018-12-16T23:52:05.461Z,100713.62
2018-12-16T23:54:32.907Z,100714.55
2018-12-16T23:57:00.398Z,100712.31
2018-12-16T23:59:27.892Z,100711.48
